Wilmington, Delaware
Current Conditions -  °F | °C
As of 9:51 PM on Monday 22 Dec 2014 (Local Time) from KILG Reporting Station
Light Rain Light Rain  
Wind Chill:   Ceiling: 1800
Heat Index:   Visibility: 5mi
Dew Point:   Wind: 8mph
Humidity: 89%   Direction: 40°NE
Pressure: 30.15"   Gusts: NA
Location:  39.74°N, 75.55°W
Report Text: KILG 230251Z 04007KT 5SM -RA BR BKN018 OVC038 06/04 A3015 RMK AO2 SLP210 P0001 60004 T00560039 57013
Loading
Personal Weather Stations






























Interactive Weather Map New forecast layout! Learn more

10-Day Weather Forecast

Advertisements
Track Severe Weather on mobile